Estación Meteorológica Peña el Pijo (Robertgarden) [ 12/14/19 09:09:35 CET ]

Fecha Hora Presion(HPa) Temp (°C) Humedad % Rocio (°C) Viento ( m/s) Direccion Lluvia 1Hora(mm) Lluvia 24H(mm) LLuvia Total(mm)
2019-Sep-13 01:01:49 1016.700 12.9 93 11.8       35.74 428.61
2019-Sep-13 02:01:42 1016.200 13.3 93 12.2 1.9 SW   33.67 428.61
2019-Sep-13 03:02:04 1016.500 12.7 92 11.4 2.1 SW   31.08 428.61
2019-Sep-13 04:01:53 1015.500 12.5 92 11.2     2.59 30.56 431.20
2019-Sep-13 05:01:50 1015.300 12.4 93 11.3     5.18 34.18 436.90
2019-Sep-13 06:01:56 1014.400 12.4 93 11.3     4.66 38.85 441.56
2019-Sep-13 07:01:43 1014.100 12.4 93 11.3     5.69 45.06 447.78
2019-Sep-13 08:01:44 1013.800 12.4 93 11.3     4.14 49.72 452.44
2019-Sep-13 09:01:53 1013.200 12.1 93 11.0     2.07 51.80 454.51
2019-Sep-13 10:01:50 1014.200 12.1 93 11.0     1.55 53.35 456.07
2019-Sep-13 11:01:51 1014.200 12.9 93 11.8       51.80 456.58
2019-Sep-13 12:01:45 1014.300 13.4 93 12.3       49.72 456.58
2019-Sep-13 13:02:12 1014.100 15.8 93 14.7       45.58 456.58
2019-Sep-13 14:01:44 1013.900 17.3 90 15.7       45.58 456.58
2019-Sep-13 15:01:49 1014.000 17.6 86 15.2       41.44 456.58
2019-Sep-13 16:01:35 1013.700 18.6 83 15.6 0.6 WSW   34.70 456.58
2019-Sep-13 17:01:37 1014.000 14.6 87 12.5     9.32 39.36 465.91
2019-Sep-13 18:01:57 1013.600 14.3 90 12.7     3.10 42.47 469.02
2019-Sep-13 19:01:51 1013.800 15.8 90 14.2       40.92 469.02
2019-Sep-13 20:01:54 1014.000 15.6 91 14.2       40.40 469.02
2019-Sep-13 21:01:43 1014.700 14.0 91 12.6     11.39 51.80 480.41
2019-Sep-13 22:01:53 1015.600 14.4 92 13.1       52.83 481.45
2019-Sep-13 23:01:39 1016.000 13.9 92 12.6       52.83 481.45

Temperatura Máxima:18°    Temperatura Mínima:12°
Presión Máxima:1016.700 Hpa    Presión Mínima:1013.200 Hpa


Volver